createdAt,value
2022-11-20T00:02:10.439Z,5.76
2022-11-20T00:05:15.963Z,5.71
2022-11-20T00:08:21.485Z,4.10
2022-11-20T00:11:28.059Z,2.81
2022-11-20T00:14:33.729Z,2.13
2022-11-20T00:17:39.087Z,3.40
2022-11-20T00:20:44.539Z,4.73
2022-11-20T00:23:50.335Z,5.61
2022-11-20T00:26:55.668Z,5.95
2022-11-20T00:30:01.127Z,4.80
2022-11-20T00:33:06.515Z,3.23
2022-11-20T00:36:12.854Z,2.21
2022-11-20T00:39:18.546Z,1.67
2022-11-20T00:42:24.017Z,3.07
2022-11-20T00:45:29.394Z,4.46
2022-11-20T00:48:34.894Z,5.29
2022-11-20T00:51:40.310Z,5.83
2022-11-20T00:54:45.705Z,6.15
2022-11-20T00:57:50.964Z,5.96
2022-11-20T01:01:01.556Z,4.32
2022-11-20T01:04:07.244Z,2.87
2022-11-20T01:07:12.753Z,1.96
2022-11-20T01:10:18.459Z,1.38
2022-11-20T01:13:42.300Z,2.58
2022-11-20T01:16:49.297Z,4.66
2022-11-20T01:19:54.700Z,5.61
2022-11-20T01:22:59.968Z,6.11
2022-11-20T01:26:06.792Z,6.06
2022-11-20T01:29:14.631Z,4.52
2022-11-20T01:32:20.160Z,3.10
2022-11-20T01:35:25.456Z,2.17
2022-11-20T01:38:30.583Z,1.49
2022-11-20T01:41:54.207Z,0.99
2022-11-20T01:45:00.292Z,0.54
2022-11-20T01:48:05.864Z,0.24
2022-11-20T01:51:15.067Z,1.35
2022-11-20T01:54:21.642Z,3.48
2022-11-20T01:57:30.009Z,4.77
2022-11-20T02:00:35.383Z,5.43
2022-11-20T02:03:40.837Z,6.01
2022-11-20T02:06:48.266Z,6.27
2022-11-20T02:09:58.601Z,5.01
2022-11-20T02:13:22.484Z,3.47
2022-11-20T02:16:28.731Z,2.51
2022-11-20T02:19:34.384Z,3.63
2022-11-20T02:22:43.711Z,4.95
2022-11-20T02:25:49.871Z,5.66
2022-11-20T02:28:56.369Z,6.18
2022-11-20T02:32:02.895Z,5.41
2022-11-20T02:35:12.931Z,3.82
2022-11-20T02:38:18.415Z,2.62
2022-11-20T02:41:24.159Z,1.77
2022-11-20T02:44:29.454Z,1.22
2022-11-20T02:47:35.092Z,2.29
2022-11-20T02:50:41.852Z,3.94
2022-11-20T02:53:49.141Z,5.01
2022-11-20T02:56:54.481Z,5.68
2022-11-20T02:59:59.949Z,6.19
2022-11-20T03:03:05.492Z,5.60
2022-11-20T03:06:10.634Z,3.91
2022-11-20T03:09:16.202Z,2.69
2022-11-20T03:12:21.659Z,1.88
2022-11-20T03:15:27.327Z,1.27
2022-11-20T03:18:32.681Z,1.59
2022-11-20T03:21:38.160Z,3.42
2022-11-20T03:24:43.405Z,4.97
2022-11-20T03:27:48.806Z,5.95
2022-11-20T03:30:54.222Z,6.63
2022-11-20T03:33:59.887Z,6.61
2022-11-20T03:37:05.106Z,4.70
2022-11-20T03:40:11.559Z,3.26
2022-11-20T03:43:16.858Z,3.12
2022-11-20T03:46:22.462Z,4.72
2022-11-20T03:49:27.889Z,5.64
2022-11-20T03:52:33.378Z,6.19
2022-11-20T03:55:38.863Z,5.24
2022-11-20T03:58:44.515Z,3.57
2022-11-20T04:01:49.962Z,2.42
2022-11-20T04:04:55.367Z,2.33
2022-11-20T04:08:03.990Z,3.91
2022-11-20T04:11:15.916Z,5.35
2022-11-20T04:14:21.213Z,5.92
2022-11-20T04:17:26.642Z,6.32
2022-11-20T04:20:31.987Z,5.52
2022-11-20T04:23:37.460Z,3.94
2022-11-20T04:26:42.843Z,2.76
2022-11-20T04:29:48.350Z,2.40
2022-11-20T04:32:53.781Z,3.85
2022-11-20T04:36:01.979Z,5.13
2022-11-20T04:39:08.133Z,5.90
2022-11-20T04:42:32.000Z,6.36
2022-11-20T04:45:37.338Z,6.49
2022-11-20T04:48:42.622Z,5.00
2022-11-20T04:51:47.808Z,3.55
2022-11-20T04:54:54.545Z,2.56
2022-11-20T04:57:59.921Z,2.27
2022-11-20T05:01:06.807Z,3.84
2022-11-20T05:04:14.761Z,5.14
2022-11-20T05:07:20.233Z,5.85
2022-11-20T05:10:25.717Z,6.28
2022-11-20T05:13:31.161Z,6.50
2022-11-20T05:16:37.535Z,5.28
2022-11-20T05:19:42.967Z,3.78
2022-11-20T05:22:48.175Z,2.71
2022-11-20T05:25:58.894Z,2.87
2022-11-20T05:29:04.632Z,4.37
2022-11-20T05:32:10.814Z,5.36
2022-11-20T05:35:16.183Z,5.69
2022-11-20T05:38:21.479Z,6.14
2022-11-20T05:41:26.862Z,6.13
2022-11-20T05:44:32.438Z,4.80
2022-11-20T05:47:37.950Z,3.39
2022-11-20T05:50:43.253Z,2.42
2022-11-20T05:53:49.023Z,1.71
2022-11-20T05:56:54.535Z,1.19
2022-11-20T06:00:00.104Z,2.11
2022-11-20T06:03:05.527Z,3.77
2022-11-20T06:06:10.985Z,4.82
2022-11-20T06:09:17.916Z,5.52
2022-11-20T06:12:23.229Z,5.97
2022-11-20T06:15:28.905Z,6.26
2022-11-20T06:18:34.337Z,6.43
2022-11-20T06:21:39.637Z,5.30
2022-11-20T06:24:45.216Z,3.74
2022-11-20T06:27:50.501Z,2.67
2022-11-20T06:30:55.840Z,3.05
2022-11-20T06:34:01.329Z,4.43
2022-11-20T06:37:06.758Z,5.31
2022-11-20T06:40:13.165Z,5.82
2022-11-20T06:43:18.618Z,6.00
2022-11-20T06:46:24.139Z,5.95
2022-11-20T06:49:29.617Z,4.69
2022-11-20T06:52:38.253Z,3.28
2022-11-20T06:55:46.659Z,3.71
2022-11-20T06:58:51.982Z,5.09
2022-11-20T07:01:57.542Z,6.04
2022-11-20T07:05:02.865Z,6.06
2022-11-20T07:08:08.518Z,4.43
2022-11-20T07:11:14.397Z,3.13
2022-11-20T07:14:19.798Z,3.19
2022-11-20T07:17:25.208Z,4.54
2022-11-20T07:20:30.618Z,5.37
2022-11-20T07:23:36.356Z,5.81
2022-11-20T07:26:41.666Z,6.13
2022-11-20T07:29:47.123Z,4.90
2022-11-20T07:32:54.300Z,3.52
2022-11-20T07:36:01.381Z,3.13
2022-11-20T07:39:06.789Z,4.31
2022-11-20T07:42:13.094Z,5.37
2022-11-20T07:45:18.541Z,5.75
2022-11-20T07:48:23.963Z,4.73
2022-11-20T07:51:30.499Z,3.47
2022-11-20T07:54:35.877Z,4.21
2022-11-20T07:57:41.436Z,5.67
2022-11-20T08:00:46.828Z,5.92
2022-11-20T08:03:52.219Z,4.61
2022-11-20T08:06:57.706Z,3.43
2022-11-20T08:10:03.336Z,2.72
2022-11-20T08:13:26.369Z,3.45
2022-11-20T08:16:31.765Z,5.16
2022-11-20T08:19:37.095Z,6.28
2022-11-20T08:22:42.312Z,6.46
2022-11-20T08:25:51.182Z,5.21
2022-11-20T08:28:57.181Z,4.20
2022-11-20T08:32:02.485Z,4.21
2022-11-20T08:35:16.613Z,5.82
2022-11-20T08:38:21.851Z,7.00
2022-11-20T08:41:27.902Z,6.46
2022-11-20T08:44:33.438Z,5.37
2022-11-20T08:47:38.778Z,4.64
2022-11-20T08:50:43.986Z,5.06
2022-11-20T08:53:50.606Z,6.50
2022-11-20T08:56:55.808Z,6.21
2022-11-20T09:00:08.703Z,5.28
2022-11-20T09:03:14.469Z,4.81
2022-11-20T09:06:20.328Z,5.89
2022-11-20T09:09:26.180Z,7.10
2022-11-20T09:12:31.505Z,7.30
2022-11-20T09:15:36.970Z,6.24
2022-11-20T09:18:42.397Z,5.37
2022-11-20T09:21:47.738Z,4.75
2022-11-20T09:24:53.056Z,5.54
2022-11-20T09:27:58.831Z,7.11
2022-11-20T09:31:06.998Z,6.93
2022-11-20T09:34:12.257Z,5.95
2022-11-20T09:37:17.566Z,5.33
2022-11-20T09:40:24.154Z,5.08
2022-11-20T09:43:35.764Z,6.32
2022-11-20T09:46:45.224Z,7.86
2022-11-20T09:50:00.218Z,7.71
2022-11-20T09:53:14.158Z,6.59
2022-11-20T09:56:22.856Z,5.77
2022-11-20T09:59:33.557Z,5.31
2022-11-20T10:02:41.700Z,6.20
2022-11-20T10:05:48.611Z,7.38
2022-11-20T10:08:58.547Z,6.76
2022-11-20T10:12:09.135Z,5.72
2022-11-20T10:15:24.568Z,5.06
2022-11-20T10:18:39.737Z,4.61
2022-11-20T10:21:54.313Z,4.30
2022-11-20T10:25:05.253Z,4.85
2022-11-20T10:28:17.741Z,6.60
2022-11-20T10:31:30.475Z,7.66
2022-11-20T10:34:37.515Z,7.14
2022-11-20T10:37:44.845Z,6.17
2022-11-20T10:40:51.236Z,5.54
2022-11-20T10:44:02.192Z,5.10
2022-11-20T10:47:12.432Z,4.77
2022-11-20T10:50:22.621Z,5.13
2022-11-20T10:53:37.692Z,6.86
2022-11-20T10:56:50.136Z,8.14
2022-11-20T11:00:02.623Z,7.73
2022-11-20T11:03:13.452Z,6.65
2022-11-20T11:06:22.981Z,5.87
2022-11-20T11:09:32.167Z,5.28
2022-11-20T11:12:37.385Z,4.76
2022-11-20T11:15:43.101Z,4.46
2022-11-20T11:18:48.512Z,5.63
2022-11-20T11:21:55.933Z,7.06
2022-11-20T11:25:01.871Z,7.16
2022-11-20T11:28:21.028Z,5.97
2022-11-20T11:31:27.580Z,4.98
2022-11-20T11:34:33.568Z,4.39
2022-11-20T11:37:40.292Z,4.04
2022-11-20T11:40:46.123Z,4.88
2022-11-20T11:44:12.242Z,6.54
2022-11-20T11:47:22.998Z,7.48
2022-11-20T11:50:29.399Z,6.67
2022-11-20T11:53:37.073Z,5.77
2022-11-20T11:56:42.649Z,5.13
2022-11-20T11:59:54.589Z,4.68
2022-11-20T12:03:05.689Z,4.36
2022-11-20T12:06:15.005Z,4.52
2022-11-20T12:09:21.578Z,6.15
2022-11-20T12:12:31.226Z,7.30
2022-11-20T12:15:36.887Z,6.96
2022-11-20T12:18:42.964Z,5.80
2022-11-20T12:22:00.039Z,4.93
2022-11-20T12:25:09.302Z,4.21
2022-11-20T12:28:31.236Z,3.68
2022-11-20T12:31:45.473Z,3.23
2022-11-20T12:34:53.839Z,2.93
2022-11-20T12:38:05.572Z,3.66
2022-11-20T12:41:35.737Z,5.41
2022-11-20T12:45:12.948Z,6.71
2022-11-20T12:48:33.900Z,6.34
2022-11-20T12:52:01.801Z,5.16
2022-11-20T12:55:23.550Z,4.43
2022-11-20T12:58:34.632Z,3.97
2022-11-20T13:01:43.848Z,3.58
2022-11-20T13:04:59.508Z,3.23
2022-11-20T13:08:06.833Z,2.95
2022-11-20T13:11:16.738Z,3.05
2022-11-20T13:14:34.614Z,4.83
2022-11-20T13:17:42.731Z,6.45
2022-11-20T13:20:49.190Z,6.79
2022-11-20T13:23:54.401Z,5.60
2022-11-20T13:27:06.878Z,4.63
2022-11-20T13:30:18.412Z,3.96
2022-11-20T13:33:28.979Z,3.50
2022-11-20T13:36:36.006Z,3.11
2022-11-20T13:39:41.311Z,2.80
2022-11-20T13:42:47.859Z,2.53
2022-11-20T13:46:01.072Z,3.10
2022-11-20T13:49:11.049Z,5.06
2022-11-20T13:52:31.262Z,6.34
2022-11-20T13:55:40.223Z,6.67
2022-11-20T13:58:53.356Z,5.44
2022-11-20T14:01:58.827Z,4.37
2022-11-20T14:05:05.780Z,3.69
2022-11-20T14:08:15.192Z,3.15
2022-11-20T14:11:21.750Z,2.73
2022-11-20T14:14:27.883Z,2.39
2022-11-20T14:17:34.327Z,2.10
2022-11-20T14:20:40.088Z,1.87
2022-11-20T14:23:45.562Z,1.67
2022-11-20T14:26:51.669Z,1.50
2022-11-20T14:29:57.199Z,1.34
2022-11-20T14:33:05.312Z,1.23
2022-11-20T14:36:19.042Z,2.46
2022-11-20T14:39:27.703Z,4.57
2022-11-20T14:42:34.999Z,5.88
2022-11-20T14:45:40.618Z,6.62
2022-11-20T14:48:48.748Z,6.00
2022-11-20T14:52:01.795Z,4.65
2022-11-20T14:55:10.275Z,3.67
2022-11-20T14:58:24.617Z,3.03
2022-11-20T15:01:31.188Z,2.53
2022-11-20T15:04:46.161Z,2.15
2022-11-20T15:07:52.905Z,1.83
2022-11-20T15:10:58.332Z,1.54
2022-11-20T15:14:05.692Z,1.28
2022-11-20T15:17:13.329Z,1.03
2022-11-20T15:20:19.473Z,0.83
2022-11-20T15:23:25.374Z,0.66
2022-11-20T15:26:30.795Z,1.04
2022-11-20T15:29:37.878Z,3.07
2022-11-20T15:32:43.248Z,4.70
2022-11-20T15:35:48.617Z,5.74
2022-11-20T15:38:54.038Z,6.07
2022-11-20T15:41:59.422Z,4.88
2022-11-20T15:45:04.931Z,3.84
2022-11-20T15:48:13.775Z,3.14
2022-11-20T15:51:23.622Z,2.60
2022-11-20T15:54:28.984Z,2.16
2022-11-20T15:57:34.402Z,1.80
2022-11-20T16:00:41.863Z,1.49
2022-11-20T16:03:47.630Z,1.21
2022-11-20T16:06:52.944Z,0.96
2022-11-20T16:09:58.367Z,0.76
2022-11-20T16:13:21.666Z,0.63
2022-11-20T16:16:31.203Z,2.10
2022-11-20T16:19:36.704Z,3.90
2022-11-20T16:22:42.134Z,5.10
2022-11-20T16:25:47.388Z,5.82
2022-11-20T16:28:52.830Z,5.44
2022-11-20T16:31:58.514Z,4.13
2022-11-20T16:35:08.514Z,3.11
2022-11-20T16:38:13.951Z,2.42
2022-11-20T16:41:19.399Z,1.91
2022-11-20T16:44:25.019Z,1.50
2022-11-20T16:47:30.713Z,1.16
2022-11-20T16:50:36.101Z,0.92
2022-11-20T16:53:42.934Z,2.10
2022-11-20T16:56:51.106Z,3.90
2022-11-20T17:00:01.776Z,5.14
2022-11-20T17:03:10.428Z,6.03
2022-11-20T17:06:17.285Z,6.59
2022-11-20T17:09:22.749Z,5.94
2022-11-20T17:12:28.119Z,4.52
2022-11-20T17:15:33.890Z,3.48
2022-11-20T17:18:39.291Z,2.73
2022-11-20T17:21:44.530Z,2.14
2022-11-20T17:24:49.647Z,1.66
2022-11-20T17:27:55.461Z,1.24
2022-11-20T17:31:04.965Z,0.89
2022-11-20T17:34:12.785Z,0.58
2022-11-20T17:37:18.200Z,0.31
2022-11-20T17:40:27.332Z,0.09
2022-11-20T17:43:35.844Z,-0.13
2022-11-20T17:46:41.707Z,-0.33
2022-11-20T17:49:47.052Z,-0.51
2022-11-20T17:52:52.322Z,-0.69
2022-11-20T17:56:15.423Z,-0.83
2022-11-20T17:59:21.463Z,-0.75
2022-11-20T18:02:26.797Z,1.04
2022-11-20T18:05:32.167Z,2.96
2022-11-20T18:08:37.457Z,4.09
2022-11-20T18:11:43.797Z,4.83
2022-11-20T18:14:49.565Z,5.45
2022-11-20T18:17:54.942Z,4.94
2022-11-20T18:21:00.451Z,3.65
2022-11-20T18:24:13.378Z,2.72
2022-11-20T18:27:19.758Z,2.03
2022-11-20T18:30:25.647Z,1.53
2022-11-20T18:33:31.225Z,1.83
2022-11-20T18:36:36.454Z,3.60
2022-11-20T18:39:41.863Z,4.69
2022-11-20T18:43:04.744Z,5.36
2022-11-20T18:46:10.401Z,5.84
2022-11-20T18:49:15.702Z,4.84
2022-11-20T18:52:22.467Z,3.45
2022-11-20T18:55:27.851Z,2.50
2022-11-20T18:58:33.230Z,2.20
2022-11-20T19:01:38.717Z,3.46
2022-11-20T19:04:44.143Z,4.63
2022-11-20T19:07:49.604Z,5.53
2022-11-20T19:10:54.899Z,5.86
2022-11-20T19:14:00.219Z,4.64
2022-11-20T19:17:06.906Z,3.40
2022-11-20T19:20:13.146Z,2.51
2022-11-20T19:23:22.110Z,2.51
2022-11-20T19:26:28.245Z,3.75
2022-11-20T19:29:33.728Z,4.56
2022-11-20T19:32:39.511Z,5.30
2022-11-20T19:35:44.864Z,5.87
2022-11-20T19:38:53.792Z,5.20
2022-11-20T19:42:01.639Z,3.78
2022-11-20T19:45:08.238Z,2.77
2022-11-20T19:48:13.753Z,2.07
2022-11-20T19:51:20.938Z,1.57
2022-11-20T19:54:26.491Z,1.18
2022-11-20T19:57:32.865Z,0.90
2022-11-20T20:00:38.283Z,1.85
2022-11-20T20:03:44.829Z,3.32
2022-11-20T20:06:52.795Z,4.33
2022-11-20T20:09:58.103Z,5.09
2022-11-20T20:13:03.427Z,5.68
2022-11-20T20:16:09.825Z,5.02
2022-11-20T20:19:17.530Z,3.59
2022-11-20T20:22:23.110Z,2.52
2022-11-20T20:25:28.561Z,1.75
2022-11-20T20:28:33.960Z,1.14
2022-11-20T20:31:40.249Z,0.63
2022-11-20T20:34:45.713Z,0.19
2022-11-20T20:37:51.076Z,-0.18
2022-11-20T20:40:56.446Z,0.49
2022-11-20T20:44:19.830Z,2.13
2022-11-20T20:47:25.191Z,3.32
2022-11-20T20:50:31.980Z,3.92
2022-11-20T20:53:37.729Z,4.44
2022-11-20T20:56:45.474Z,4.56
2022-11-20T20:59:52.112Z,3.22
2022-11-20T21:02:57.369Z,1.93
2022-11-20T21:06:03.053Z,1.03
2022-11-20T21:09:11.239Z,0.31
2022-11-20T21:12:16.545Z,-0.30
2022-11-20T21:15:21.928Z,-0.81
2022-11-20T21:18:27.548Z,-1.24
2022-11-20T21:21:50.307Z,-1.62
2022-11-20T21:24:55.593Z,-2.00
2022-11-20T21:28:01.045Z,-1.73
2022-11-20T21:31:07.594Z,0.26
2022-11-20T21:34:13.338Z,1.75
2022-11-20T21:37:18.742Z,2.56
2022-11-20T21:40:24.142Z,3.18
2022-11-20T21:43:29.550Z,3.65
2022-11-20T21:46:38.800Z,3.99
2022-11-20T21:49:44.028Z,3.21
2022-11-20T21:52:49.264Z,1.75
2022-11-20T21:55:57.723Z,0.64
2022-11-20T21:59:03.111Z,-0.17
2022-11-20T22:02:11.726Z,-0.79
2022-11-20T22:05:17.345Z,-1.35
2022-11-20T22:08:22.666Z,-1.81
2022-11-20T22:11:28.097Z,-2.15
2022-11-20T22:14:33.585Z,-1.21
2022-11-20T22:18:11.104Z,0.74
2022-11-20T22:21:17.331Z,2.03
2022-11-20T22:24:24.065Z,2.68
2022-11-20T22:27:29.683Z,3.29
2022-11-20T22:30:35.266Z,3.37
2022-11-20T22:33:40.992Z,2.02
2022-11-20T22:36:46.371Z,0.72
2022-11-20T22:39:51.732Z,-0.21
2022-11-20T22:42:57.009Z,-0.93
2022-11-20T22:46:04.636Z,-1.52
2022-11-20T22:49:09.996Z,-2.03
2022-11-20T22:52:15.345Z,-2.47
2022-11-20T22:55:20.637Z,-2.83
2022-11-20T22:58:25.850Z,-2.19
2022-11-20T23:01:31.969Z,-0.13
2022-11-20T23:04:37.434Z,1.41
2022-11-20T23:07:43.896Z,2.47
2022-11-20T23:10:49.229Z,3.36
2022-11-20T23:13:56.557Z,3.93
2022-11-20T23:17:35.760Z,2.42
2022-11-20T23:20:41.037Z,0.66
2022-11-20T23:23:48.998Z,-0.33
2022-11-20T23:26:54.370Z,-1.08
